Time;durP1;ratioP1;P1;durP2;ratioP2;P2;SDS_P1;SDS_P2;PMS_P1;PMS_P2;Temp;Humidity;BMP_temperature;BMP_pressure;BME280_temperature;BME280_humidity;BME280_pressure;Samples;Min_cycle;Max_cycle;Signal;HPM_P1;HPM_P2
2022/07/02 00:00:51;;;;;;;5.65;3.33;;;;;;;;;;2082615;28;20664;-54
2022/07/02 00:01:52;;;;;;;3.95;3.53;;;;;;;;;;2082039;28;20184;-58
2022/07/02 00:02:53;;;;;;;3.35;3.03;;;;;;;;;;2082507;28;20209;-56
2022/07/02 00:04:02;;;;;;;3.75;3.38;;;;;;;;;;2081717;28;20267;-58
2022/07/02 00:05:04;;;;;;;5.93;3.17;;;;;;;;;;2082348;28;20176;-57
2022/07/02 00:06:05;;;;;;;5.53;3.13;;;;;;;;;;2082393;28;20168;-57
2022/07/02 00:07:07;;;;;;;4.40;3.80;;;;;;;;;;2082576;28;20571;-57
2022/07/02 00:08:07;;;;;;;4.65;3.20;;;;;;;;;;2082084;28;20172;-58
2022/07/02 00:09:07;;;;;;;3.83;3.53;;;;;;;;;;2082508;28;20226;-58
2022/07/02 00:10:08;;;;;;;3.65;3.35;;;;;;;;;;2082345;28;20195;-57
2022/07/02 00:11:12;;;;;;;3.92;3.58;;;;;;;;;;2082269;28;20607;-56
2022/07/02 00:12:13;;;;;;;3.78;3.58;;;;;;;;;;2082316;28;20214;-56
2022/07/02 00:13:14;;;;;;;7.45;6.65;;;;;;;;;;2082397;28;20528;-54
2022/07/02 00:14:14;;;;;;;8.10;7.30;;;;;;;;;;2080740;28;20641;-55
2022/07/02 00:15:16;;;;;;;6.10;5.53;;;;;;;;;;2082452;28;20201;-56
2022/07/02 00:16:16;;;;;;;4.45;3.88;;;;;;;;;;2082179;28;20156;-55
2022/07/02 00:17:16;;;;;;;4.85;3.83;;;;;;;;;;2082491;28;20164;-58
2022/07/02 00:18:17;;;;;;;4.65;4.03;;;;;;;;;;2082537;28;20192;-57
2022/07/02 00:19:18;;;;;;;4.45;3.90;;;;;;;;;;2079598;28;20180;-58
2022/07/02 00:20:18;;;;;;;4.13;3.67;;;;;;;;;;2081660;28;20199;-59
2022/07/02 00:21:19;;;;;;;3.80;3.45;;;;;;;;;;2082140;28;20165;-54
2022/07/02 00:22:20;;;;;;;4.18;3.78;;;;;;;;;;2081307;28;20176;-53
2022/07/02 00:23:20;;;;;;;5.97;3.90;;;;;;;;;;2081274;28;20242;-58
2022/07/02 00:24:22;;;;;;;5.93;4.10;;;;;;;;;;2081427;28;20637;-57
2022/07/02 00:25:22;;;;;;;5.55;4.05;;;;;;;;;;2082280;28;20195;-59
2022/07/02 00:26:28;;;;;;;4.93;4.25;;;;;;;;;;2082301;28;20526;-57
2022/07/02 00:27:30;;;;;;;4.60;4.20;;;;;;;;;;2081713;28;20176;-57
2022/07/02 00:28:33;;;;;;;4.30;3.97;;;;;;;;;;2079698;28;20267;-57
2022/07/02 00:29:35;;;;;;;6.93;4.47;;;;;;;;;;2081586;28;20164;-59
2022/07/02 00:30:37;;;;;;;4.65;4.25;;;;;;;;;;2081259;28;20564;-57
2022/07/02 00:31:38;;;;;;;4.88;4.50;;;;;;;;;;2081660;28;20176;-56
2022/07/02 00:32:38;;;;;;;5.03;4.30;;;;;;;;;;2073579;28;20841;-55
2022/07/02 00:33:40;;;;;;;4.35;4.03;;;;;;;;;;2081392;28;20195;-59
2022/07/02 00:34:42;;;;;;;4.32;3.90;;;;;;;;;;2081430;28;20652;-56
2022/07/02 00:35:43;;;;;;;7.15;4.57;;;;;;;;;;2082362;28;20665;-59
2022/07/02 00:36:44;;;;;;;5.10;4.68;;;;;;;;;;2082149;28;20184;-56
2022/07/02 00:37:45;;;;;;;4.63;4.32;;;;;;;;;;2082228;28;20171;-57
2022/07/02 00:38:45;;;;;;;5.60;4.78;;;;;;;;;;2081170;28;20188;-55
2022/07/02 00:39:46;;;;;;;4.43;4.13;;;;;;;;;;2081600;28;20160;-51
2022/07/02 00:40:46;;;;;;;4.75;4.45;;;;;;;;;;2081949;28;20188;-57
2022/07/02 00:41:47;;;;;;;4.90;4.50;;;;;;;;;;2081998;28;20242;-56
2022/07/02 00:42:48;;;;;;;4.88;4.47;;;;;;;;;;2082146;28;20173;-52
2022/07/02 00:43:49;;;;;;;5.50;5.00;;;;;;;;;;2081629;28;20659;-50
2022/07/02 00:44:50;;;;;;;5.72;4.80;;;;;;;;;;2081147;28;20180;-58
2022/07/02 00:45:50;;;;;;;6.55;5.35;;;;;;;;;;2081849;28;20183;-53
2022/07/02 00:46:52;;;;;;;9.02;5.13;;;;;;;;;;2081863;28;20290;-53
2022/07/02 00:47:56;;;;;;;5.63;5.13;;;;;;;;;;2081979;28;20156;-53
2022/07/02 00:48:57;;;;;;;7.75;5.30;;;;;;;;;;2082029;28;20271;-50
2022/07/02 00:49:57;;;;;;;5.40;4.90;;;;;;;;;;2081684;28;20172;-55
2022/07/02 00:50:57;;;;;;;8.77;4.88;;;;;;;;;;2081939;28;20188;-58
2022/07/02 00:51:58;;;;;;;7.80;4.60;;;;;;;;;;2081793;28;20633;-55
2022/07/02 00:52:59;;;;;;;5.60;4.80;;;;;;;;;;2081853;28;20212;-52
2022/07/02 00:53:59;;;;;;;5.07;4.38;;;;;;;;;;2081051;28;20234;-57
2022/07/02 00:54:59;;;;;;;6.60;4.55;;;;;;;;;;2081989;28;20640;-53
2022/07/02 00:56:00;;;;;;;5.07;4.22;;;;;;;;;;2082012;28;20173;-54
2022/07/02 00:57:00;;;;;;;6.72;4.13;;;;;;;;;;2081647;28;20213;-60
2022/07/02 00:58:01;;;;;;;4.88;4.25;;;;;;;;;;2081290;28;20173;-55
2022/07/02 00:59:02;;;;;;;5.18;4.70;;;;;;;;;;2081748;28;20635;-54
2022/07/02 01:00:03;;;;;;;4.82;4.45;;;;;;;;;;2081176;28;20552;-53
2022/07/02 01:01:03;;;;;;;6.07;4.47;;;;;;;;;;2082246;28;20254;-53
2022/07/02 01:02:06;;;;;;;4.45;4.10;;;;;;;;;;2082375;28;20187;-58
2022/07/02 01:03:07;;;;;;;5.45;5.05;;;;;;;;;;2081807;28;20234;-58
2022/07/02 01:04:08;;;;;;;5.20;4.70;;;;;;;;;;2080917;28;20203;-50
2022/07/02 01:05:09;;;;;;;6.32;5.10;;;;;;;;;;2083121;28;20551;-56
2022/07/02 01:06:09;;;;;;;6.78;5.47;;;;;;;;;;2082466;28;20654;-53
2022/07/02 01:07:10;;;;;;;5.78;4.80;;;;;;;;;;2081765;28;20196;-52
2022/07/02 01:11:01;;;;;;;5.72;4.40;;;;;;;;;;2082333;28;20203;-58
2022/07/02 01:12:02;;;;;;;5.55;5.03;;;;;;;;;;2082137;28;20664;-56
2022/07/02 01:13:03;;;;;;;5.40;5.00;;;;;;;;;;2081766;28;20208;-56
2022/07/02 01:14:04;;;;;;;6.43;4.88;;;;;;;;;;2081492;28;20164;-58
2022/07/02 01:15:04;;;;;;;5.20;4.78;;;;;;;;;;2082661;28;20171;-59
2022/07/02 01:16:04;;;;;;;5.10;4.70;;;;;;;;;;2082585;28;20176;-55
2022/07/02 01:17:05;;;;;;;5.95;5.50;;;;;;;;;;2082410;28;20188;-55
2022/07/02 01:18:05;;;;;;;5.72;5.22;;;;;;;;;;2081644;28;20247;-56
2022/07/02 01:19:07;;;;;;;6.22;5.60;;;;;;;;;;2081675;28;20670;-53
2022/07/02 01:20:09;;;;;;;6.55;6.05;;;;;;;;;;2081625;28;20271;-56
2022/07/02 01:21:09;;;;;;;6.30;5.60;;;;;;;;;;2081727;28;20606;-54
2022/07/02 01:22:12;;;;;;;7.25;5.97;;;;;;;;;;2082539;28;20172;-56
2022/07/02 01:23:13;;;;;;;6.38;5.75;;;;;;;;;;2082831;28;20180;-56
2022/07/02 01:24:22;;;;;;;6.32;5.82;;;;;;;;;;2081498;28;20156;-58
2022/07/02 01:25:24;;;;;;;7.35;5.70;;;;;;;;;;2082010;28;20198;-55
2022/07/02 01:26:25;;;;;;;6.65;5.93;;;;;;;;;;2081762;28;20671;-56
2022/07/02 01:27:25;;;;;;;6.32;5.75;;;;;;;;;;2081356;28;20568;-56
2022/07/02 01:28:25;;;;;;;6.25;5.80;;;;;;;;;;2080855;28;20625;-55
2022/07/02 01:29:25;;;;;;;5.95;5.45;;;;;;;;;;2080577;28;20533;-53
2022/07/02 01:30:26;;;;;;;5.32;4.95;;;;;;;;;;2081389;28;20168;-59
2022/07/02 01:31:26;;;;;;;6.38;5.78;;;;;;;;;;2081681;28;20558;-56
2022/07/02 01:32:27;;;;;;;7.20;5.65;;;;;;;;;;2081623;28;20168;-55
2022/07/02 01:33:27;;;;;;;6.38;5.85;;;;;;;;;;2081659;28;20173;-55
2022/07/02 01:34:28;;;;;;;6.05;5.35;;;;;;;;;;2080809;28;20737;-56
2022/07/02 01:35:28;;;;;;;6.93;5.47;;;;;;;;;;2081592;28;20255;-58
2022/07/02 01:36:28;;;;;;;6.35;5.75;;;;;;;;;;2081688;28;20192;-52
2022/07/02 01:37:29;;;;;;;5.97;4.97;;;;;;;;;;2081211;28;20172;-53
2022/07/02 01:38:29;;;;;;;6.60;5.28;;;;;;;;;;2081438;28;20176;-52
2022/07/02 01:39:29;;;;;;;5.18;4.68;;;;;;;;;;2081788;28;20391;-51
2022/07/02 01:40:30;;;;;;;6.32;5.75;;;;;;;;;;2081640;28;20208;-54
2022/07/02 01:41:39;;;;;;;5.93;5.32;;;;;;;;;;2081000;28;20172;-57
2022/07/02 01:42:40;;;;;;;5.32;4.82;;;;;;;;;;2081043;28;20160;-56
2022/07/02 01:43:40;;;;;;;6.28;4.78;;;;;;;;;;2081193;28;20196;-54
2022/07/02 01:44:41;;;;;;;7.07;5.10;;;;;;;;;;2080736;28;20590;-55
2022/07/02 01:45:41;;;;;;;5.80;5.15;;;;;;;;;;2080575;28;20180;-57
2022/07/02 01:46:43;;;;;;;5.05;4.70;;;;;;;;;;2080781;28;20258;-59
2022/07/02 01:47:43;;;;;;;4.88;4.47;;;;;;;;;;2081212;28;20590;-54
2022/07/02 01:48:44;;;;;;;5.03;4.43;;;;;;;;;;2081601;28;20180;-55
2022/07/02 01:49:44;;;;;;;5.93;4.63;;;;;;;;;;2081448;28;20173;-54
2022/07/02 01:50:44;;;;;;;4.75;4.45;;;;;;;;;;2081506;28;20700;-57
2022/07/02 01:51:45;;;;;;;4.50;4.20;;;;;;;;;;2081689;28;20561;-56
2022/07/02 01:52:45;;;;;;;5.28;4.78;;;;;;;;;;2081321;28;20160;-55
2022/07/02 01:53:45;;;;;;;4.72;4.43;;;;;;;;;;2081235;28;20237;-57
2022/07/02 01:54:46;;;;;;;5.95;4.63;;;;;;;;;;2080813;28;20187;-52
2022/07/02 01:55:46;;;;;;;5.13;4.65;;;;;;;;;;2081381;28;20198;-57
2022/07/02 01:56:46;;;;;;;5.43;4.53;;;;;;;;;;2080358;28;20184;-55
2022/07/02 01:57:48;;;;;;;4.93;4.50;;;;;;;;;;2078583;28;20176;-51
2022/07/02 01:58:48;;;;;;;4.95;4.45;;;;;;;;;;2080712;28;20178;-50
2022/07/02 01:59:48;;;;;;;5.57;4.25;;;;;;;;;;2080928;28;20251;-50
2022/07/02 02:00:49;;;;;;;5.65;4.82;;;;;;;;;;2081512;28;20207;-54
2022/07/02 02:01:49;;;;;;;4.90;4.50;;;;;;;;;;2081373;28;20180;-49
2022/07/02 02:02:50;;;;;;;4.72;4.28;;;;;;;;;;2081515;28;20255;-51
2022/07/02 02:03:51;;;;;;;5.13;4.60;;;;;;;;;;2081234;28;20180;-50
2022/07/02 02:04:51;;;;;;;4.80;4.40;;;;;;;;;;2080716;28;20184;-53
2022/07/02 02:05:52;;;;;;;4.57;4.18;;;;;;;;;;2081618;28;20179;-54
2022/07/02 02:06:53;;;;;;;5.32;4.75;;;;;;;;;;2080918;28;20207;-53
2022/07/02 02:07:53;;;;;;;5.15;4.60;;;;;;;;;;2080483;28;20160;-56
2022/07/02 02:08:53;;;;;;;5.15;4.65;;;;;;;;;;2081471;28;20246;-52
2022/07/02 02:09:54;;;;;;;4.35;4.05;;;;;;;;;;2081530;28;20176;-53
2022/07/02 02:10:54;;;;;;;5.20;4.38;;;;;;;;;;2081362;28;20681;-57
2022/07/02 02:11:55;;;;;;;4.85;4.40;;;;;;;;;;2081527;28;20259;-51
2022/07/02 02:12:55;;;;;;;4.45;4.05;;;;;;;;;;2081158;28;20179;-54
2022/07/02 02:13:58;;;;;;;4.28;3.97;;;;;;;;;;2081312;28;20169;-52
2022/07/02 02:14:58;;;;;;;4.65;4.35;;;;;;;;;;2081163;28;20164;-51
2022/07/02 02:15:59;;;;;;;4.93;4.53;;;;;;;;;;2081560;28;20529;-55
2022/07/02 02:16:59;;;;;;;4.53;4.13;;;;;;;;;;2081416;28;20603;-59
2022/07/02 02:17:59;;;;;;;5.57;4.97;;;;;;;;;;2081213;28;20184;-53
2022/07/02 02:19:00;;;;;;;5.25;4.75;;;;;;;;;;2080517;28;20184;-53
2022/07/02 02:20:00;;;;;;;5.18;4.65;;;;;;;;;;2081045;28;20189;-53
2022/07/02 02:21:00;;;;;;;5.30;4.80;;;;;;;;;;2081324;28;20617;-55
2022/07/02 02:22:01;;;;;;;5.78;4.75;;;;;;;;;;2081671;28;20172;-55
2022/07/02 02:23:04;;;;;;;5.30;5.00;;;;;;;;;;2080964;28;20180;-56
2022/07/02 02:24:04;;;;;;;5.80;5.30;;;;;;;;;;2080619;28;20550;-51
2022/07/02 02:25:05;;;;;;;5.45;5.00;;;;;;;;;;2081391;28;20176;-55
2022/07/02 02:26:05;;;;;;;6.15;5.57;;;;;;;;;;2080728;28;20180;-54
2022/07/02 02:27:06;;;;;;;6.32;5.68;;;;;;;;;;2080452;28;20242;-57
2022/07/02 02:28:07;;;;;;;6.20;5.72;;;;;;;;;;2081237;28;20175;-58
2022/07/02 02:29:08;;;;;;;5.50;5.03;;;;;;;;;;2079459;28;20554;-56
2022/07/02 02:30:09;;;;;;;5.40;5.10;;;;;;;;;;2081778;28;20243;-52
2022/07/02 02:31:09;;;;;;;5.35;5.05;;;;;;;;;;2081553;28;20281;-55
2022/07/02 02:32:10;;;;;;;5.43;5.03;;;;;;;;;;2083346;28;20188;-56
2022/07/02 02:33:10;;;;;;;6.00;5.50;;;;;;;;;;2082768;28;20255;-56
2022/07/02 02:34:11;;;;;;;6.18;5.78;;;;;;;;;;2081542;28;20651;-50
2022/07/02 02:35:11;;;;;;;7.82;5.72;;;;;;;;;;2074258;28;20161;-53
2022/07/02 02:36:11;;;;;;;5.72;5.35;;;;;;;;;;2082413;28;20168;-53
2022/07/02 02:37:12;;;;;;;6.28;5.85;;;;;;;;;;2082928;28;20176;-53
2022/07/02 02:38:12;;;;;;;7.13;6.43;;;;;;;;;;2082648;28;20168;-60
2022/07/02 02:39:12;;;;;;;6.88;6.20;;;;;;;;;;2082981;28;20535;-53
2022/07/02 02:40:13;;;;;;;6.10;5.63;;;;;;;;;;2082939;28;20180;-51
2022/07/02 02:41:13;;;;;;;6.68;5.65;;;;;;;;;;2082996;28;20168;-49
2022/07/02 02:42:14;;;;;;;11.35;6.05;;;;;;;;;;2074323;28;20271;-54
2022/07/02 02:43:14;;;;;;;7.47;5.70;;;;;;;;;;2073979;28;20169;-56
2022/07/02 02:44:14;;;;;;;6.05;5.55;;;;;;;;;;2081518;28;20562;-58
2022/07/02 02:45:15;;;;;;;5.88;5.43;;;;;;;;;;2082324;28;20172;-52
2022/07/02 02:46:15;;;;;;;5.68;5.18;;;;;;;;;;2083050;28;20164;-52
2022/07/02 02:47:15;;;;;;;6.25;5.80;;;;;;;;;;2082892;28;20199;-55
2022/07/02 02:48:16;;;;;;;6.20;5.63;;;;;;;;;;2082664;28;20219;-52
2022/07/02 02:49:16;;;;;;;5.75;5.35;;;;;;;;;;2082274;28;20236;-56
2022/07/02 02:50:17;;;;;;;8.23;5.88;;;;;;;;;;2082209;28;20293;-52
2022/07/02 02:51:17;;;;;;;6.20;5.80;;;;;;;;;;2083059;28;20189;-54
2022/07/02 02:52:17;;;;;;;5.93;5.43;;;;;;;;;;2082894;28;20167;-53
2022/07/02 02:53:18;;;;;;;7.05;6.40;;;;;;;;;;2082676;28;20657;-49
2022/07/02 02:54:18;;;;;;;5.78;5.30;;;;;;;;;;2081915;28;20206;-53
2022/07/02 02:55:19;;;;;;;6.15;5.55;;;;;;;;;;2082976;28;20200;-51
2022/07/02 02:56:19;;;;;;;6.40;5.82;;;;;;;;;;2082622;28;20164;-51
2022/07/02 02:57:19;;;;;;;7.30;6.80;;;;;;;;;;2082770;28;20172;-54
2022/07/02 02:58:20;;;;;;;6.40;5.80;;;;;;;;;;2082214;28;20169;-54
2022/07/02 02:59:20;;;;;;;8.07;7.28;;;;;;;;;;2082803;28;20554;-54
2022/07/02 03:00:20;;;;;;;7.30;6.60;;;;;;;;;;2082799;28;20264;-55
2022/07/02 03:01:21;;;;;;;7.47;6.78;;;;;;;;;;2083094;28;20188;-52
2022/07/02 03:02:21;;;;;;;6.82;6.20;;;;;;;;;;2082793;28;20206;-51
2022/07/02 03:03:21;;;;;;;8.18;7.38;;;;;;;;;;2083001;28;20238;-55
2022/07/02 03:04:22;;;;;;;6.43;5.95;;;;;;;;;;2081906;28;20172;-54
2022/07/02 03:05:22;;;;;;;5.80;5.43;;;;;;;;;;2082822;28;20616;-54
2022/07/02 03:06:22;;;;;;;6.88;5.70;;;;;;;;;;2082696;28;20168;-52
2022/07/02 03:07:23;;;;;;;6.05;5.65;;;;;;;;;;2082673;28;20239;-53
2022/07/02 03:08:23;;;;;;;6.05;5.55;;;;;;;;;;2082597;28;20238;-52
2022/07/02 03:09:23;;;;;;;6.25;5.60;;;;;;;;;;2082792;28;20160;-51
2022/07/02 03:10:24;;;;;;;6.45;5.75;;;;;;;;;;2082439;28;20634;-54
2022/07/02 03:11:24;;;;;;;6.22;5.70;;;;;;;;;;2088824;23;20334;-58
2022/07/02 03:12:25;;;;;;;7.50;6.03;;;;;;;;;;2075298;28;20748;-53
2022/07/02 03:13:25;;;;;;;6.60;6.15;;;;;;;;;;2078796;28;20165;-55
2022/07/02 03:14:25;;;;;;;8.07;6.13;;;;;;;;;;2079672;28;20183;-53
2022/07/02 03:15:26;;;;;;;6.32;5.82;;;;;;;;;;2081670;28;20168;-56
2022/07/02 03:16:26;;;;;;;5.82;5.43;;;;;;;;;;2089579;28;20231;-56
2022/07/02 03:17:27;;;;;;;5.88;5.38;;;;;;;;;;2090010;28;20198;-57
2022/07/02 03:18:27;;;;;;;6.00;5.50;;;;;;;;;;2082556;28;20208;-54
2022/07/02 03:19:27;;;;;;;6.75;5.80;;;;;;;;;;2082483;28;20181;-57
2022/07/02 03:20:28;;;;;;;6.00;5.60;;;;;;;;;;2081458;28;20251;-53
2022/07/02 03:21:28;;;;;;;6.15;5.60;;;;;;;;;;2082212;28;20196;-55
2022/07/02 03:22:28;;;;;;;6.65;5.97;;;;;;;;;;2082473;28;20176;-54
2022/07/02 03:23:29;;;;;;;7.82;5.80;;;;;;;;;;2082182;28;20188;-54
2022/07/02 03:24:29;;;;;;;5.97;5.38;;;;;;;;;;2079689;28;20997;-54
2022/07/02 03:25:29;;;;;;;5.30;5.00;;;;;;;;;;2082689;28;20161;-52
2022/07/02 03:26:30;;;;;;;6.53;5.50;;;;;;;;;;2082557;28;20208;-54
2022/07/02 03:27:31;;;;;;;5.85;5.40;;;;;;;;;;2082642;28;20196;-56
2022/07/02 03:28:32;;;;;;;5.50;5.10;;;;;;;;;;2081972;28;20172;-55
2022/07/02 03:29:32;;;;;;;6.38;5.78;;;;;;;;;;2082386;28;20545;-53
2022/07/02 03:30:32;;;;;;;5.68;5.28;;;;;;;;;;2082316;28;20176;-56
2022/07/02 03:31:33;;;;;;;6.25;5.65;;;;;;;;;;2082491;28;20200;-51
2022/07/02 03:32:33;;;;;;;6.30;5.70;;;;;;;;;;2082488;28;20161;-54
2022/07/02 03:33:33;;;;;;;6.32;5.82;;;;;;;;;;2082199;28;20200;-55
2022/07/02 03:34:34;;;;;;;6.47;5.68;;;;;;;;;;2079382;28;21081;-53
2022/07/02 03:35:34;;;;;;;6.13;5.53;;;;;;;;;;2082574;28;20249;-53
2022/07/02 03:36:35;;;;;;;6.00;5.43;;;;;;;;;;2082505;28;20543;-51
2022/07/02 03:37:35;;;;;;;6.72;6.10;;;;;;;;;;2082446;28;20241;-54
2022/07/02 03:38:35;;;;;;;6.03;5.53;;;;;;;;;;2082052;28;20648;-55
2022/07/02 03:39:36;;;;;;;6.22;5.72;;;;;;;;;;2082025;28;20259;-56
2022/07/02 03:40:36;;;;;;;7.03;6.43;;;;;;;;;;2082223;28;20541;-54
2022/07/02 03:41:37;;;;;;;8.98;6.40;;;;;;;;;;2082409;28;20192;-55
2022/07/02 03:42:37;;;;;;;7.80;5.70;;;;;;;;;;2082681;28;20219;-53
2022/07/02 03:43:37;;;;;;;6.65;6.22;;;;;;;;;;2081619;28;20357;-58
2022/07/02 03:44:38;;;;;;;6.57;6.18;;;;;;;;;;2081665;28;20247;-55
2022/07/02 03:45:38;;;;;;;6.60;6.07;;;;;;;;;;2081825;28;20165;-59
2022/07/02 03:46:38;;;;;;;6.82;6.28;;;;;;;;;;2081640;28;20188;-57
2022/07/02 03:47:39;;;;;;;6.85;6.40;;;;;;;;;;2081455;28;20226;-55
2022/07/02 03:48:39;;;;;;;7.20;6.60;;;;;;;;;;2082359;28;20176;-53
2022/07/02 03:49:39;;;;;;;6.60;6.20;;;;;;;;;;2082494;28;20199;-55
2022/07/02 03:50:42;;;;;;;13.23;7.25;;;;;;;;;;2074350;28;20183;-52
2022/07/02 03:51:43;;;;;;;7.53;6.90;;;;;;;;;;2074089;28;20216;-54
2022/07/02 03:52:43;;;;;;;7.35;6.82;;;;;;;;;;2074378;28;20593;-55
2022/07/02 03:53:43;;;;;;;7.93;6.55;;;;;;;;;;2079257;28;20172;-50
2022/07/02 03:54:44;;;;;;;6.95;6.38;;;;;;;;;;2081487;28;20168;-53
2022/07/02 03:55:44;;;;;;;9.23;6.85;;;;;;;;;;2082493;28;20676;-54
2022/07/02 03:56:44;;;;;;;6.88;6.20;;;;;;;;;;2081820;28;20603;-51
2022/07/02 03:57:45;;;;;;;6.53;5.97;;;;;;;;;;2081742;28;20189;-58
2022/07/02 03:58:45;;;;;;;6.72;6.00;;;;;;;;;;2082453;28;20673;-55
2022/07/02 03:59:45;;;;;;;5.88;5.38;;;;;;;;;;2082389;28;20164;-53
2022/07/02 04:00:46;;;;;;;6.95;5.90;;;;;;;;;;2082444;28;20180;-52
2022/07/02 04:01:46;;;;;;;7.03;6.32;;;;;;;;;;2082365;28;20192;-54
2022/07/02 04:02:46;;;;;;;6.20;5.63;;;;;;;;;;2082384;28;20176;-52
2022/07/02 04:03:47;;;;;;;6.35;5.95;;;;;;;;;;2082096;28;20172;-53
2022/07/02 04:04:47;;;;;;;7.28;5.57;;;;;;;;;;2081379;28;20176;-55
2022/07/02 04:05:47;;;;;;;6.13;5.53;;;;;;;;;;2082246;28;20525;-58
2022/07/02 04:06:48;;;;;;;6.47;5.88;;;;;;;;;;2082108;28;20568;-55
2022/07/02 04:07:48;;;;;;;6.90;6.25;;;;;;;;;;2081920;28;20598;-54
2022/07/02 04:08:48;;;;;;;8.27;6.13;;;;;;;;;;2082019;28;20566;-52
2022/07/02 04:09:49;;;;;;;6.03;5.40;;;;;;;;;;2073410;28;20173;-55
2022/07/02 04:10:49;;;;;;;6.03;5.30;;;;;;;;;;2073501;28;20546;-48
2022/07/02 04:11:49;;;;;;;5.63;5.28;;;;;;;;;;2082263;28;20572;-57
2022/07/02 04:12:50;;;;;;;5.72;5.32;;;;;;;;;;2082325;28;20200;-55
2022/07/02 04:13:50;;;;;;;6.63;5.45;;;;;;;;;;2081979;28;20184;-54
2022/07/02 04:14:50;;;;;;;5.72;5.35;;;;;;;;;;2081399;28;20572;-54
2022/07/02 04:15:51;;;;;;;5.40;4.95;;;;;;;;;;2082272;28;20169;-54
2022/07/02 04:16:52;;;;;;;5.65;5.15;;;;;;;;;;2082362;28;20195;-53
2022/07/02 04:17:52;;;;;;;6.40;5.07;;;;;;;;;;2082346;28;20180;-55
2022/07/02 04:18:52;;;;;;;7.75;5.30;;;;;;;;;;2081895;28;20180;-56
2022/07/02 04:19:53;;;;;;;5.80;5.30;;;;;;;;;;2079826;28;20673;-55
2022/07/02 04:20:53;;;;;;;6.43;5.32;;;;;;;;;;2082104;28;20172;-51
2022/07/02 04:21:54;;;;;;;6.00;5.50;;;;;;;;;;2081548;28;20276;-52
2022/07/02 04:22:54;;;;;;;6.03;5.20;;;;;;;;;;2081658;28;20303;-55
2022/07/02 04:23:55;;;;;;;6.10;4.68;;;;;;;;;;2081721;28;20171;-51
2022/07/02 04:24:55;;;;;;;5.85;5.28;;;;;;;;;;2081768;28;20179;-53
2022/07/02 04:25:55;;;;;;;5.40;4.90;;;;;;;;;;2082026;28;20168;-51
2022/07/02 04:26:56;;;;;;;6.30;5.53;;;;;;;;;;2081633;28;20251;-51
2022/07/02 04:27:56;;;;;;;5.97;5.45;;;;;;;;;;2081893;28;20183;-53
2022/07/02 04:28:57;;;;;;;7.57;4.82;;;;;;;;;;2081961;28;20211;-55
2022/07/02 04:29:57;;;;;;;6.38;5.38;;;;;;;;;;2081874;28;20547;-54
2022/07/02 04:30:58;;;;;;;8.55;6.10;;;;;;;;;;2080933;28;20161;-53
2022/07/02 04:31:58;;;;;;;5.57;5.07;;;;;;;;;;2082264;28;20168;-52
2022/07/02 04:32:58;;;;;;;5.72;5.03;;;;;;;;;;2082593;28;20647;-51
2022/07/02 04:33:59;;;;;;;5.40;5.10;;;;;;;;;;2082260;28;20546;-51
2022/07/02 04:34:59;;;;;;;6.70;6.05;;;;;;;;;;2082094;28;20543;-56
2022/07/02 04:35:59;;;;;;;5.00;4.65;;;;;;;;;;2082235;28;20251;-56
2022/07/02 04:37:00;;;;;;;6.00;5.28;;;;;;;;;;2082116;28;20183;-51
2022/07/02 04:38:00;;;;;;;5.30;4.75;;;;;;;;;;2082094;28;20187;-51
2022/07/02 04:39:02;;;;;;;5.40;5.00;;;;;;;;;;2081455;28;20188;-52
2022/07/02 04:40:02;;;;;;;6.00;5.50;;;;;;;;;;2081503;28;20261;-52
2022/07/02 04:41:03;;;;;;;6.15;5.03;;;;;;;;;;2081410;28;20176;-51
2022/07/02 04:42:03;;;;;;;5.28;4.75;;;;;;;;;;2081775;28;20187;-52
2022/07/02 04:43:03;;;;;;;5.78;5.18;;;;;;;;;;2081467;28;20164;-57
2022/07/02 04:44:04;;;;;;;7.30;4.75;;;;;;;;;;2080892;28;20527;-53
2022/07/02 04:45:04;;;;;;;5.60;5.20;;;;;;;;;;2081089;28;20195;-53
2022/07/02 04:46:05;;;;;;;7.80;4.97;;;;;;;;;;2081454;28;20255;-53
2022/07/02 04:47:05;;;;;;;5.55;5.03;;;;;;;;;;2081874;28;20211;-52
2022/07/02 04:48:07;;;;;;;5.82;5.30;;;;;;;;;;2081456;28;20164;-54
2022/07/02 04:49:07;;;;;;;5.97;5.38;;;;;;;;;;2081237;28;20203;-54
2022/07/02 04:50:08;;;;;;;5.40;4.97;;;;;;;;;;2081898;28;20647;-58
2022/07/02 04:51:08;;;;;;;5.82;5.25;;;;;;;;;;2081197;28;20518;-52
2022/07/02 04:52:09;;;;;;;7.93;5.00;;;;;;;;;;2073267;28;20223;-57
2022/07/02 04:53:09;;;;;;;6.65;4.70;;;;;;;;;;2081308;28;20168;-51
2022/07/02 04:54:09;;;;;;;7.88;4.75;;;;;;;;;;2081097;28;20200;-54
2022/07/02 04:55:10;;;;;;;5.20;4.80;;;;;;;;;;2080721;28;20169;-53
2022/07/02 04:56:10;;;;;;;5.88;5.15;;;;;;;;;;2081237;28;20180;-57
2022/07/02 04:57:10;;;;;;;7.90;4.72;;;;;;;;;;2081238;28;20164;-56
2022/07/02 04:58:11;;;;;;;5.85;4.78;;;;;;;;;;2082009;28;20637;-54
2022/07/02 04:59:11;;;;;;;5.78;5.38;;;;;;;;;;2081585;28;20204;-57
2022/07/02 05:00:12;;;;;;;7.53;5.40;;;;;;;;;;2082051;28;20279;-53
2022/07/02 05:01:12;;;;;;;7.32;5.60;;;;;;;;;;2081878;28;20196;-53
2022/07/02 05:02:12;;;;;;;5.63;5.13;;;;;;;;;;2081710;28;20196;-56
2022/07/02 05:03:13;;;;;;;6.88;4.72;;;;;;;;;;2081931;28;20310;-53
2022/07/02 05:04:13;;;;;;;5.45;4.95;;;;;;;;;;2080779;28;20582;-54
2022/07/02 05:05:14;;;;;;;5.20;4.85;;;;;;;;;;2079905;28;20172;-54
2022/07/02 05:06:14;;;;;;;5.93;4.95;;;;;;;;;;2081807;28;20191;-53
2022/07/02 05:07:14;;;;;;;5.38;4.93;;;;;;;;;;2081577;28;20199;-53
2022/07/02 05:08:15;;;;;;;5.80;5.05;;;;;;;;;;2081947;28;20255;-56
2022/07/02 05:09:15;;;;;;;5.22;4.53;;;;;;;;;;2081677;28;20607;-53
2022/07/02 05:10:15;;;;;;;7.80;4.80;;;;;;;;;;2081830;28;20223;-54
2022/07/02 05:11:19;;;;;;;5.50;5.00;;;;;;;;;;2081617;28;20200;-56
2022/07/02 05:12:19;;;;;;;5.63;4.43;;;;;;;;;;2081957;28;20145;-53
2022/07/02 05:13:20;;;;;;;4.68;4.28;;;;;;;;;;2081570;28;20159;-55
2022/07/02 05:14:20;;;;;;;5.28;4.45;;;;;;;;;;2080902;28;20264;-53
2022/07/02 05:15:21;;;;;;;4.85;4.45;;;;;;;;;;2080966;28;20168;-55
2022/07/02 05:16:21;;;;;;;5.25;4.43;;;;;;;;;;2080859;28;20611;-52
2022/07/02 05:17:22;;;;;;;5.65;5.05;;;;;;;;;;2072922;28;20254;-55
2022/07/02 05:18:23;;;;;;;6.45;4.38;;;;;;;;;;2072796;28;20247;-55
2022/07/02 05:19:23;;;;;;;5.72;4.47;;;;;;;;;;2081452;28;20657;-57
2022/07/02 05:20:24;;;;;;;5.38;4.93;;;;;;;;;;2081860;28;20172;-52
2022/07/02 05:21:24;;;;;;;5.20;4.25;;;;;;;;;;2081506;28;20199;-57
2022/07/02 05:22:24;;;;;;;5.50;5.05;;;;;;;;;;2081594;28;20172;-53
2022/07/02 05:23:24;;;;;;;5.80;5.30;;;;;;;;;;2081532;28;20184;-54
2022/07/02 05:24:25;;;;;;;4.47;4.07;;;;;;;;;;2080738;28;20199;-53
2022/07/02 05:25:25;;;;;;;5.35;4.78;;;;;;;;;;2081601;28;20179;-54
2022/07/02 05:26:26;;;;;;;4.72;4.32;;;;;;;;;;2081727;28;20190;-53
2022/07/02 05:27:26;;;;;;;4.50;4.15;;;;;;;;;;2081592;28;20200;-51
2022/07/02 05:28:26;;;;;;;4.55;4.25;;;;;;;;;;2081304;28;20179;-54
2022/07/02 05:29:27;;;;;;;6.78;4.10;;;;;;;;;;2081430;28;20179;-55
2022/07/02 05:30:27;;;;;;;6.15;5.38;;;;;;;;;;2081692;28;20271;-53
2022/07/02 05:31:27;;;;;;;4.75;4.28;;;;;;;;;;2081419;28;20598;-55
2022/07/02 05:32:28;;;;;;;5.45;3.95;;;;;;;;;;2081579;28;20237;-52
2022/07/02 05:33:28;;;;;;;4.25;3.90;;;;;;;;;;2081594;28;20192;-53
2022/07/02 05:34:28;;;;;;;4.53;4.05;;;;;;;;;;2080033;28;20160;-52
2022/07/02 05:35:29;;;;;;;4.93;4.50;;;;;;;;;;2081047;28;20577;-55
2022/07/02 05:36:29;;;;;;;5.13;4.38;;;;;;;;;;2081385;28;20558;-54
2022/07/02 05:37:29;;;;;;;4.53;4.22;;;;;;;;;;2081485;28;20183;-55
2022/07/02 05:38:29;;;;;;;4.97;4.25;;;;;;;;;;2081261;28;20211;-55
2022/07/02 05:39:30;;;;;;;5.50;4.18;;;;;;;;;;2081127;28;20179;-53
2022/07/02 05:40:30;;;;;;;4.43;4.05;;;;;;;;;;2081543;28;20164;-54
2022/07/02 05:41:30;;;;;;;5.10;4.57;;;;;;;;;;2081658;28;20188;-54
2022/07/02 05:42:31;;;;;;;4.80;4.05;;;;;;;;;;2081872;28;20222;-52
2022/07/02 05:43:31;;;;;;;6.38;4.03;;;;;;;;;;2081123;28;20160;-56
2022/07/02 05:44:32;;;;;;;5.70;4.55;;;;;;;;;;2080733;28;20187;-53
2022/07/02 05:45:32;;;;;;;4.07;3.67;;;;;;;;;;2081271;28;20180;-52
2022/07/02 05:46:32;;;;;;;4.68;3.58;;;;;;;;;;2080744;28;20172;-52
2022/07/02 05:47:33;;;;;;;3.90;3.58;;;;;;;;;;2080629;28;20238;-53
2022/07/02 05:48:34;;;;;;;4.10;3.60;;;;;;;;;;2081282;28;20172;-54
2022/07/02 05:49:34;;;;;;;4.75;3.20;;;;;;;;;;2080826;28;20180;-53
2022/07/02 05:50:35;;;;;;;3.95;3.50;;;;;;;;;;2080437;28;20802;-53
2022/07/02 05:51:35;;;;;;;4.13;3.40;;;;;;;;;;2080709;28;20192;-54
2022/07/02 05:52:35;;;;;;;4.90;3.30;;;;;;;;;;2080537;28;20579;-52
2022/07/02 05:53:36;;;;;;;4.65;3.38;;;;;;;;;;2081377;28;20581;-55
2022/07/02 05:54:36;;;;;;;6.85;3.72;;;;;;;;;;2080374;28;20176;-56
2022/07/02 05:55:36;;;;;;;6.38;3.30;;;;;;;;;;2081589;28;20188;-54
2022/07/02 05:56:37;;;;;;;6.15;3.78;;;;;;;;;;2081246;28;20172;-51
2022/07/02 05:57:37;;;;;;;5.35;3.25;;;;;;;;;;2081498;28;20180;-51
2022/07/02 05:58:38;;;;;;;4.78;3.40;;;;;;;;;;2081446;28;20164;-56
2022/07/02 05:59:38;;;;;;;6.63;3.20;;;;;;;;;;2081491;28;20169;-58
2022/07/02 06:00:39;;;;;;;5.50;3.55;;;;;;;;;;2081430;28;20168;-55
2022/07/02 06:01:39;;;;;;;5.00;3.15;;;;;;;;;;2081472;28;20746;-58
2022/07/02 06:02:39;;;;;;;3.83;3.20;;;;;;;;;;2081416;28;20199;-55
2022/07/02 06:03:40;;;;;;;4.18;3.33;;;;;;;;;;2081252;28;20192;-57
2022/07/02 06:04:40;;;;;;;3.22;2.95;;;;;;;;;;2080704;28;20191;-51
2022/07/02 06:08:18;;;;;;;3.45;2.95;;;;;;;;;;2081649;28;20156;-55
2022/07/02 06:09:18;;;;;;;3.55;3.25;;;;;;;;;;2081448;28;20173;-52